Terminal Aerodrome Forecast
Issued by NWS

Home | Current Version | Previous Version | Text Only | Print | Product List | Glossary On
Versions: 1 2 3 4 5 6 7 8 9 10 11 12 13 14 15 16 17
000
FTUS43 KSGF 221900 AAA
TAFJLN
TAF AMD
KJLN 221946Z 2220/2318 21009KT 3SM BR OVC007
      TEMPO 2220/2222 2SM -DZ
     FM222200 24012KT P6SM OVC015
     FM230100 24013KT P6SM BKN025
     FM230400 26010KT P6SM SCT025
     FM230700 26010KT P6SM BKN100=

USA.gov is the U.S. government's official web portal to all federal, state and local government web resources and services.